Weather at Ignacio Agramonte International Airport

Public forecast

Using degrees Celsius for public forecast. Weather courtesy of forecast.io.

Current aviation weather report (METAR) for Ignacio Agramonte International Airport

2024/05/25 22:50 (retrieved 40 minutes ago)

MUCM 252250Z 09012KT 9000 SCT025 30/20 Q1013

Aviation forecast (TAF) for Ignacio Agramonte International Airport

2024/05/25 18:07 (retrieved 5 hours ago)

TAF MUCM 251700Z 2518/2618 04008KT 9000 SCT020 TEMPO 2519/2524 BKN020 BECMG 2601/2603 VRB04KT FEW020